Coyle, Oklahoma
Current Conditions -  °F | °C
As of 4:53 PM on Saturday 25 Oct 2014 (Local Time) from KGOK Reporting Station
Clear Clear  
Wind Chill: 90°   Ceiling: Unl
Heat Index: 90°   Visibility: 10mi
Dew Point: 57°   Wind: 8mph
Humidity: 33%   Direction: 180°S
Pressure: 30.01"   Gusts: NA
Location:  35.96°N, 97.23°W
Report Text: KGOK 252153Z AUTO 18007KT 10SM CLR 32/14 A3001 RMK AO2 SLP153 T03220139 $
Loading
Personal Weather Stations






























Interactive Weather Map
Tropical Storm Tracking
New forecast layout! Learn more

10-Day Weather Forecast

Advertisements
Track Severe Weather on mobile